Time;durP1;ratioP1;P1;durP2;ratioP2;P2;SDS_P1;SDS_P2;PMS_P1;PMS_P2;Temp;Humidity;BMP_temperature;BMP_pressure;BME280_temperature;BME280_humidity;BME280_pressure;Samples;Min_cycle;Max_cycle;Signal;HPM_P1;HPM_P2
2023/05/14 00:01:30;;;;;;;6.37;5.33;;;;;;;;;;5092911;28;20461;-68
2023/05/14 00:03:59;;;;;;;5.23;4.30;;;;;;;;;;5079490;28;20568;-67
2023/05/14 00:06:27;;;;;;;6.20;3.80;;;;;;;;;;5095066;28;20588;-69
2023/05/14 00:08:57;;;;;;;5.20;4.37;;;;;;;;;;5099541;28;20959;-69
2023/05/14 00:11:24;;;;;;;5.07;4.57;;;;;;;;;;5097105;28;20478;-67
2023/05/14 00:13:52;;;;;;;12.17;5.17;;;;;;;;;;5100070;28;20455;-69
2023/05/14 00:16:19;;;;;;;5.70;4.70;;;;;;;;;;5099282;28;20506;-69
2023/05/14 00:18:47;;;;;;;7.63;4.70;;;;;;;;;;5090402;28;20491;-68
2023/05/14 00:21:22;;;;;;;8.47;5.10;;;;;;;;;;5092494;28;20539;-70
2023/05/14 00:23:50;;;;;;;5.97;5.10;;;;;;;;;;5097367;28;20439;-68
2023/05/14 00:26:17;;;;;;;7.47;4.87;;;;;;;;;;5096487;28;20831;-69
2023/05/14 00:28:45;;;;;;;8.00;5.13;;;;;;;;;;5118590;28;20871;-69
2023/05/14 00:31:12;;;;;;;6.10;4.90;;;;;;;;;;5122931;28;20469;-68
2023/05/14 00:33:40;;;;;;;10.50;5.17;;;;;;;;;;5113560;28;20451;-68
2023/05/14 00:36:08;;;;;;;8.07;5.17;;;;;;;;;;5101803;28;20448;-69
2023/05/14 00:38:38;;;;;;;6.97;4.47;;;;;;;;;;5100115;28;20540;-68
2023/05/14 00:41:05;;;;;;;4.53;3.93;;;;;;;;;;5088635;28;20461;-70
2023/05/14 00:43:33;;;;;;;6.27;4.67;;;;;;;;;;5088616;28;20503;-69
2023/05/14 00:46:01;;;;;;;10.37;4.93;;;;;;;;;;5097411;28;20549;-69
2023/05/14 00:48:28;;;;;;;5.77;4.20;;;;;;;;;;5096937;28;20464;-68
2023/05/14 00:50:56;;;;;;;5.10;4.60;;;;;;;;;;5098352;28;20508;-68
2023/05/14 00:53:23;;;;;;;6.00;5.13;;;;;;;;;;5101005;28;20534;-68
2023/05/14 00:55:53;;;;;;;6.70;5.03;;;;;;;;;;5114848;28;20458;-68
2023/05/14 00:58:21;;;;;;;5.30;4.73;;;;;;;;;;5099742;28;20960;-68
2023/05/14 01:00:50;;;;;;;7.90;5.70;;;;;;;;;;5104067;28;20469;-68
2023/05/14 01:03:21;;;;;;;7.63;5.57;;;;;;;;;;5108216;28;20447;-69
2023/05/14 01:05:55;;;;;;;6.27;4.70;;;;;;;;;;5096795;28;20475;-68
2023/05/14 01:08:28;;;;;;;7.77;6.10;;;;;;;;;;5080662;28;20514;-69
2023/05/14 01:11:01;;;;;;;6.23;5.37;;;;;;;;;;5089368;28;20452;-68
2023/05/14 01:13:37;;;;;;;8.40;5.30;;;;;;;;;;5102658;28;20456;-69
2023/05/14 01:16:06;;;;;;;12.10;5.20;;;;;;;;;;5101340;28;20474;-67
2023/05/14 01:18:34;;;;;;;6.30;5.30;;;;;;;;;;5102193;28;20744;-68
2023/05/14 01:21:02;;;;;;;7.20;5.60;;;;;;;;;;5119555;28;20756;-69
2023/05/14 01:23:33;;;;;;;7.27;5.47;;;;;;;;;;5105159;28;20451;-69
2023/05/14 01:26:01;;;;;;;6.00;5.00;;;;;;;;;;5097062;28;20480;-69
2023/05/14 01:28:30;;;;;;;7.87;4.87;;;;;;;;;;5100044;28;20558;-69
2023/05/14 01:31:01;;;;;;;6.50;5.23;;;;;;;;;;5099158;28;20444;-68
2023/05/14 01:33:30;;;;;;;7.73;4.97;;;;;;;;;;5114413;28;20455;-69
2023/05/14 01:35:58;;;;;;;8.90;5.63;;;;;;;;;;5108576;28;20932;-68
2023/05/14 01:38:32;;;;;;;7.90;5.73;;;;;;;;;;5118780;28;20863;-69
2023/05/14 01:41:02;;;;;;;6.90;5.57;;;;;;;;;;5107664;28;20526;-68
2023/05/14 01:43:31;;;;;;;7.70;5.20;;;;;;;;;;5098152;28;20960;-68
2023/05/14 01:46:01;;;;;;;7.20;5.90;;;;;;;;;;5110821;28;20926;-68
2023/05/14 01:48:29;;;;;;;8.10;5.47;;;;;;;;;;5103148;28;20809;-68
2023/05/14 01:50:57;;;;;;;6.60;5.47;;;;;;;;;;5106871;28;20475;-68
2023/05/14 01:53:25;;;;;;;8.40;5.47;;;;;;;;;;5119785;28;20492;-68
2023/05/14 01:55:52;;;;;;;6.03;5.33;;;;;;;;;;5104700;28;20455;-68
2023/05/14 01:58:21;;;;;;;6.80;5.10;;;;;;;;;;5110823;28;20446;-68
2023/05/14 02:00:49;;;;;;;6.50;5.20;;;;;;;;;;5100922;28;20425;-67
2023/05/14 02:03:16;;;;;;;5.97;4.87;;;;;;;;;;5101079;28;20448;-68
2023/05/14 02:05:44;;;;;;;8.37;5.40;;;;;;;;;;5102021;28;20515;-68
2023/05/14 02:08:11;;;;;;;7.33;5.30;;;;;;;;;;5098724;28;20509;-68
2023/05/14 02:10:39;;;;;;;8.20;5.50;;;;;;;;;;5109898;28;20455;-68
2023/05/14 02:13:09;;;;;;;11.17;5.60;;;;;;;;;;5115763;28;20872;-67
2023/05/14 02:15:39;;;;;;;7.27;6.40;;;;;;;;;;5101171;28;20444;-69
2023/05/14 02:18:07;;;;;;;8.73;6.40;;;;;;;;;;5099903;28;20456;-68
2023/05/14 02:20:35;;;;;;;6.50;5.73;;;;;;;;;;5098453;28;21132;-69
2023/05/14 02:23:03;;;;;;;7.67;5.60;;;;;;;;;;5104223;28;20448;-69
2023/05/14 02:25:30;;;;;;;6.83;5.03;;;;;;;;;;5102496;28;20508;-69
2023/05/14 02:27:58;;;;;;;9.30;5.20;;;;;;;;;;5103478;28;20450;-69
2023/05/14 02:30:26;;;;;;;6.77;5.60;;;;;;;;;;5104361;28;20440;-69
2023/05/14 02:32:55;;;;;;;6.47;5.53;;;;;;;;;;5102712;28;21068;-69
2023/05/14 02:35:22;;;;;;;8.23;5.77;;;;;;;;;;5104429;28;20456;-68
2023/05/14 02:37:50;;;;;;;8.60;5.70;;;;;;;;;;5100667;28;20891;-68
2023/05/14 02:40:17;;;;;;;7.03;5.67;;;;;;;;;;5104167;28;20455;-68
2023/05/14 02:42:45;;;;;;;6.87;5.53;;;;;;;;;;5101059;28;20460;-69
2023/05/14 02:45:12;;;;;;;7.20;5.20;;;;;;;;;;5103556;28;20473;-68
2023/05/14 02:47:40;;;;;;;7.77;5.67;;;;;;;;;;5100532;28;20505;-68
2023/05/14 02:50:17;;;;;;;7.17;5.10;;;;;;;;;;5112881;28;20570;-68
2023/05/14 02:52:44;;;;;;;7.93;5.30;;;;;;;;;;5107057;28;20469;-68
2023/05/14 02:55:12;;;;;;;7.33;5.93;;;;;;;;;;5113186;28;20872;-68
2023/05/14 02:57:39;;;;;;;6.07;5.47;;;;;;;;;;5125105;28;20436;-69
2023/05/14 03:00:08;;;;;;;7.50;6.17;;;;;;;;;;5116492;28;20554;-67
2023/05/14 03:02:36;;;;;;;6.67;5.17;;;;;;;;;;5100327;28;20506;-68
2023/05/14 03:05:04;;;;;;;7.83;5.60;;;;;;;;;;5099931;28;20471;-69
2023/05/14 03:07:32;;;;;;;8.77;5.57;;;;;;;;;;5100354;28;20939;-68
2023/05/14 03:10:00;;;;;;;6.50;5.33;;;;;;;;;;5099971;28;20585;-68
2023/05/14 03:12:28;;;;;;;6.70;5.77;;;;;;;;;;5102125;28;20435;-68
2023/05/14 03:14:55;;;;;;;7.53;5.93;;;;;;;;;;5098161;28;20460;-68
2023/05/14 03:17:23;;;;;;;6.93;5.10;;;;;;;;;;5098140;28;20451;-68
2023/05/14 03:19:50;;;;;;;7.07;5.00;;;;;;;;;;5098885;28;20440;-68
2023/05/14 03:22:18;;;;;;;6.93;4.87;;;;;;;;;;5105011;28;20737;-67
2023/05/14 03:24:50;;;;;;;6.40;5.13;;;;;;;;;;5119250;28;20515;-69
2023/05/14 03:27:17;;;;;;;6.73;5.30;;;;;;;;;;5118910;28;20977;-69
2023/05/14 03:29:45;;;;;;;6.37;5.57;;;;;;;;;;5118309;28;20854;-69
2023/05/14 03:32:13;;;;;;;5.10;4.60;;;;;;;;;;5118572;28;20496;-70
2023/05/14 03:34:41;;;;;;;6.03;4.80;;;;;;;;;;5120346;28;20553;-69
2023/05/14 03:37:09;;;;;;;6.97;5.90;;;;;;;;;;5119470;28;20555;-70
2023/05/14 03:39:39;;;;;;;9.30;5.93;;;;;;;;;;5119254;28;20527;-70
2023/05/14 03:42:12;;;;;;;6.40;5.20;;;;;;;;;;5101391;28;20472;-69
2023/05/14 03:44:40;;;;;;;6.90;5.10;;;;;;;;;;5101941;28;20456;-69
2023/05/14 03:47:07;;;;;;;5.57;4.90;;;;;;;;;;5101891;28;20577;-68
2023/05/14 03:49:35;;;;;;;5.70;5.10;;;;;;;;;;5100632;28;20456;-68
2023/05/14 03:52:03;;;;;;;7.60;4.90;;;;;;;;;;5100409;28;20863;-67
2023/05/14 03:54:33;;;;;;;10.70;5.30;;;;;;;;;;5101661;28;20848;-67
2023/05/14 03:57:08;;;;;;;8.50;5.50;;;;;;;;;;5098212;28;20472;-69
2023/05/14 03:59:37;;;;;;;7.80;5.47;;;;;;;;;;5098091;28;20459;-67
2023/05/14 04:02:06;;;;;;;8.20;6.17;;;;;;;;;;5099059;28;21115;-67
2023/05/14 04:04:34;;;;;;;8.23;5.50;;;;;;;;;;5097997;28;20448;-68
2023/05/14 04:07:13;;;;;;;8.67;6.50;;;;;;;;;;5099232;28;20484;-68
2023/05/14 04:09:40;;;;;;;8.40;5.83;;;;;;;;;;5097459;28;20497;-68
2023/05/14 04:12:08;;;;;;;6.33;5.53;;;;;;;;;;5096985;28;20466;-68
2023/05/14 04:14:44;;;;;;;5.90;5.20;;;;;;;;;;5102915;28;20451;-68
2023/05/14 04:17:12;;;;;;;7.23;6.20;;;;;;;;;;5118171;28;20454;-68
2023/05/14 04:19:39;;;;;;;8.13;5.63;;;;;;;;;;5118677;28;20734;-68
2023/05/14 04:22:08;;;;;;;6.60;5.90;;;;;;;;;;5120987;28;20867;-68
2023/05/14 04:24:35;;;;;;;7.43;5.70;;;;;;;;;;5120574;28;20455;-68
2023/05/14 04:27:05;;;;;;;8.20;6.63;;;;;;;;;;5120124;28;20494;-68
2023/05/14 04:29:34;;;;;;;8.23;7.43;;;;;;;;;;5117706;28;20458;-68
2023/05/14 04:32:03;;;;;;;8.20;6.23;;;;;;;;;;5119754;28;20451;-68
2023/05/14 04:34:30;;;;;;;8.57;6.00;;;;;;;;;;5118545;28;20459;-67
2023/05/14 04:36:58;;;;;;;5.80;5.20;;;;;;;;;;5081389;28;20871;-69
2023/05/14 04:39:25;;;;;;;7.43;6.23;;;;;;;;;;5098472;28;21148;-69
2023/05/14 04:41:56;;;;;;;7.97;6.53;;;;;;;;;;5110319;28;20466;-70
2023/05/14 04:44:25;;;;;;;6.83;5.60;;;;;;;;;;5103841;28;20463;-69
2023/05/14 04:46:52;;;;;;;7.43;5.47;;;;;;;;;;5099522;28;20480;-70
2023/05/14 04:49:22;;;;;;;6.60;5.87;;;;;;;;;;5097859;28;20561;-70
2023/05/14 04:51:49;;;;;;;7.73;6.37;;;;;;;;;;5098398;28;20458;-69
2023/05/14 04:54:17;;;;;;;6.50;5.67;;;;;;;;;;5116714;28;20463;-69
2023/05/14 04:56:44;;;;;;;8.00;5.40;;;;;;;;;;5118977;28;20515;-68
2023/05/14 04:59:12;;;;;;;8.83;6.37;;;;;;;;;;5118324;28;20729;-69
2023/05/14 05:01:41;;;;;;;6.20;5.60;;;;;;;;;;5117884;28;20526;-68
2023/05/14 05:04:09;;;;;;;6.10;5.00;;;;;;;;;;5118880;28;20466;-69
2023/05/14 05:06:43;;;;;;;6.87;5.30;;;;;;;;;;5118776;28;20802;-68
2023/05/14 05:09:18;;;;;;;5.50;4.87;;;;;;;;;;5078503;28;20455;-69
2023/05/14 05:11:52;;;;;;;7.10;5.90;;;;;;;;;;5079648;28;20464;-70
2023/05/14 05:14:21;;;;;;;7.93;5.97;;;;;;;;;;5103523;28;20455;-69
2023/05/14 05:16:48;;;;;;;6.70;5.20;;;;;;;;;;5118643;28;20446;-68
2023/05/14 05:19:16;;;;;;;7.13;6.20;;;;;;;;;;5117825;28;20451;-68
2023/05/14 05:21:47;;;;;;;7.70;5.27;;;;;;;;;;5119753;28;20455;-68
2023/05/14 05:24:15;;;;;;;6.30;5.43;;;;;;;;;;5114756;28;20532;-69
2023/05/14 05:26:44;;;;;;;6.23;5.40;;;;;;;;;;5098466;28;20553;-67
2023/05/14 05:29:12;;;;;;;7.80;5.40;;;;;;;;;;5097266;28;20531;-67
2023/05/14 05:31:40;;;;;;;6.80;5.70;;;;;;;;;;5099278;28;20463;-69
2023/05/14 05:34:08;;;;;;;9.07;6.17;;;;;;;;;;5098966;28;20933;-69
2023/05/14 05:36:36;;;;;;;6.97;5.57;;;;;;;;;;5099365;28;20978;-68
2023/05/14 05:39:05;;;;;;;10.43;5.53;;;;;;;;;;5097676;28;20887;-68
2023/05/14 05:41:35;;;;;;;11.47;6.73;;;;;;;;;;5078005;28;20476;-68
2023/05/14 05:44:03;;;;;;;11.43;5.43;;;;;;;;;;5086986;28;20851;-68
2023/05/14 05:46:30;;;;;;;10.73;6.33;;;;;;;;;;5101540;28;20463;-69
2023/05/14 05:48:58;;;;;;;12.20;6.57;;;;;;;;;;5102997;28;20524;-67
2023/05/14 05:51:26;;;;;;;6.80;6.20;;;;;;;;;;5119546;28;20466;-68
2023/05/14 05:53:54;;;;;;;7.53;6.73;;;;;;;;;;5118066;28;20455;-68
2023/05/14 05:56:24;;;;;;;7.23;6.50;;;;;;;;;;5118395;28;20537;-68
2023/05/14 05:58:54;;;;;;;9.43;6.70;;;;;;;;;;5104235;28;20447;-69
2023/05/14 06:01:22;;;;;;;7.60;5.87;;;;;;;;;;5097817;28;20907;-68
2023/05/14 06:03:50;;;;;;;6.50;5.27;;;;;;;;;;5098194;28;20459;-68
2023/05/14 06:06:17;;;;;;;6.37;5.77;;;;;;;;;;5098204;28;20478;-67
2023/05/14 06:08:47;;;;;;;6.30;4.80;;;;;;;;;;5111787;28;20522;-67
2023/05/14 06:11:15;;;;;;;12.70;5.83;;;;;;;;;;5118814;28;20914;-67
2023/05/14 06:13:44;;;;;;;6.30;5.23;;;;;;;;;;5117469;28;20447;-67
2023/05/14 06:16:12;;;;;;;6.00;5.40;;;;;;;;;;5117412;28;20898;-68
2023/05/14 06:18:42;;;;;;;5.37;4.87;;;;;;;;;;5101319;28;20460;-68
2023/05/14 06:21:10;;;;;;;6.60;5.90;;;;;;;;;;5076945;28;20769;-67
2023/05/14 06:23:45;;;;;;;7.03;5.60;;;;;;;;;;5077118;28;20469;-67
2023/05/14 06:26:14;;;;;;;6.40;5.50;;;;;;;;;;5082627;28;20460;-68
2023/05/14 06:28:42;;;;;;;7.10;5.20;;;;;;;;;;5097499;28;20519;-69
2023/05/14 06:31:12;;;;;;;8.83;5.33;;;;;;;;;;5097648;28;20501;-68
2023/05/14 06:33:42;;;;;;;8.70;5.73;;;;;;;;;;5097261;28;20452;-69
2023/05/14 06:36:10;;;;;;;6.87;5.67;;;;;;;;;;5096508;28;20456;-68
2023/05/14 06:38:38;;;;;;;8.17;7.20;;;;;;;;;;5095699;28;20903;-67
2023/05/14 06:41:05;;;;;;;6.33;5.73;;;;;;;;;;5094710;28;20543;-67
2023/05/14 06:43:32;;;;;;;7.17;6.47;;;;;;;;;;5094670;28;20455;-68
2023/05/14 06:46:00;;;;;;;6.73;6.10;;;;;;;;;;5092922;28;20511;-69
2023/05/14 06:48:29;;;;;;;6.43;5.80;;;;;;;;;;5093723;28;20479;-68
2023/05/14 06:50:56;;;;;;;5.87;5.03;;;;;;;;;;5094622;28;20463;-68
2023/05/14 06:53:24;;;;;;;6.60;5.50;;;;;;;;;;5095320;28;20463;-68
2023/05/14 06:55:52;;;;;;;5.90;5.30;;;;;;;;;;5111210;28;20528;-68
2023/05/14 06:58:20;;;;;;;5.67;4.90;;;;;;;;;;5114365;28;20552;-69
2023/05/14 07:00:48;;;;;;;7.47;4.93;;;;;;;;;;5115912;28;20556;-69
2023/05/14 07:03:15;;;;;;;7.00;5.37;;;;;;;;;;5112122;28;20485;-68
2023/05/14 07:05:48;;;;;;;6.37;4.70;;;;;;;;;;5093445;28;20491;-68
2023/05/14 07:08:18;;;;;;;6.40;4.73;;;;;;;;;;5096161;28;20524;-68
2023/05/14 07:10:48;;;;;;;7.43;6.20;;;;;;;;;;5098187;28;20444;-68
2023/05/14 07:13:22;;;;;;;5.93;4.30;;;;;;;;;;5097830;28;20452;-70
2023/05/14 07:15:55;;;;;;;6.53;4.40;;;;;;;;;;5098074;28;20463;-69
2023/05/14 07:18:25;;;;;;;6.33;4.37;;;;;;;;;;5100413;28;20448;-70
2023/05/14 07:20:54;;;;;;;5.90;4.30;;;;;;;;;;5099776;28;20455;-70
2023/05/14 07:23:21;;;;;;;4.63;3.17;;;;;;;;;;5098358;28;20440;-70
2023/05/14 07:25:49;;;;;;;7.40;3.07;;;;;;;;;;5097723;28;20549;-68
2023/05/14 07:28:16;;;;;;;4.73;3.20;;;;;;;;;;5098920;28;20491;-69
2023/05/14 07:30:46;;;;;;;6.83;3.43;;;;;;;;;;5098490;28;20546;-69
2023/05/14 07:33:13;;;;;;;7.30;3.10;;;;;;;;;;5096608;28;20448;-69
2023/05/14 07:35:41;;;;;;;4.23;2.97;;;;;;;;;;5095935;28;20448;-68
2023/05/14 07:38:10;;;;;;;4.13;3.00;;;;;;;;;;5096660;28;20458;-69
2023/05/14 07:40:38;;;;;;;4.90;3.73;;;;;;;;;;5096268;28;20456;-68
2023/05/14 07:43:06;;;;;;;4.67;3.50;;;;;;;;;;5098445;28;20867;-69
2023/05/14 07:45:33;;;;;;;6.67;3.53;;;;;;;;;;5099151;28;21032;-68
2023/05/14 07:48:01;;;;;;;4.10;3.30;;;;;;;;;;5100646;28;20919;-67
2023/05/14 07:50:29;;;;;;;4.53;2.77;;;;;;;;;;5079886;28;20546;-68
2023/05/14 07:52:57;;;;;;;4.53;2.83;;;;;;;;;;5097781;28;20472;-68
2023/05/14 07:55:29;;;;;;;6.60;3.03;;;;;;;;;;5096724;28;20532;-67
2023/05/14 07:57:58;;;;;;;4.87;3.13;;;;;;;;;;5092565;28;20452;-67
2023/05/14 08:00:26;;;;;;;4.53;2.80;;;;;;;;;;5097127;28;20448;-69
2023/05/14 08:02:54;;;;;;;5.03;2.90;;;;;;;;;;5077580;28;20459;-68
2023/05/14 08:05:22;;;;;;;3.90;2.90;;;;;;;;;;5095260;28;20452;-70
2023/05/14 08:07:53;;;;;;;7.53;3.30;;;;;;;;;;5094920;28;20492;-68
2023/05/14 08:10:20;;;;;;;4.67;3.40;;;;;;;;;;5095558;28;20511;-68
2023/05/14 08:12:49;;;;;;;3.50;2.50;;;;;;;;;;5095387;28;20452;-67
2023/05/14 08:15:17;;;;;;;4.30;3.00;;;;;;;;;;5111017;28;20451;-68
2023/05/14 08:17:44;;;;;;;4.93;3.70;;;;;;;;;;5116096;28;20457;-67
2023/05/14 08:20:13;;;;;;;3.77;2.67;;;;;;;;;;5103544;28;20455;-69
2023/05/14 08:22:41;;;;;;;6.70;3.80;;;;;;;;;;5095104;28;20554;-67
2023/05/14 08:25:09;;;;;;;5.00;4.17;;;;;;;;;;5095767;28;20464;-69
2023/05/14 08:27:36;;;;;;;3.60;3.20;;;;;;;;;;5094424;28;20475;-69
2023/05/14 08:30:14;;;;;;;6.37;3.30;;;;;;;;;;5094856;28;21102;-69
2023/05/14 08:32:42;;;;;;;13.47;7.77;;;;;;;;;;5095749;28;20609;-68
2023/05/14 08:35:10;;;;;;;12.23;8.57;;;;;;;;;;5095172;28;20510;-69
2023/05/14 08:37:37;;;;;;;4.17;2.83;;;;;;;;;;5094848;28;20582;-68
2023/05/14 08:40:14;;;;;;;5.47;2.60;;;;;;;;;;5089033;28;20445;-69
2023/05/14 08:42:43;;;;;;;4.40;3.80;;;;;;;;;;5075527;28;20530;-68
2023/05/14 08:45:19;;;;;;;4.87;3.03;;;;;;;;;;5075820;28;20477;-68
2023/05/14 08:47:48;;;;;;;6.13;3.17;;;;;;;;;;5077388;28;20492;-71
2023/05/14 08:50:16;;;;;;;5.23;4.20;;;;;;;;;;5101169;28;20885;-70
2023/05/14 08:52:44;;;;;;;5.80;2.93;;;;;;;;;;5115068;28;20497;-70
2023/05/14 08:55:12;;;;;;;6.07;3.50;;;;;;;;;;5116049;28;21120;-68
2023/05/14 08:57:41;;;;;;;4.37;3.20;;;;;;;;;;5113327;28;21244;-68
2023/05/14 09:00:13;;;;;;;5.23;3.60;;;;;;;;;;5108530;28;20462;-68
2023/05/14 09:03:02;;;;;;;4.50;3.40;;;;;;;;;;5095047;28;20561;-68
2023/05/14 09:05:35;;;;;;;3.83;2.80;;;;;;;;;;5090695;28;20548;-69
2023/05/14 09:08:03;;;;;;;9.00;3.40;;;;;;;;;;5092206;28;20479;-70
2023/05/14 09:10:31;;;;;;;3.87;3.17;;;;;;;;;;5092712;28;20475;-69
2023/05/14 09:13:09;;;;;;;6.80;3.10;;;;;;;;;;5089401;28;20447;-70
2023/05/14 09:15:40;;;;;;;5.90;2.70;;;;;;;;;;5114957;28;20479;-70
2023/05/14 09:18:11;;;;;;;9.17;2.50;;;;;;;;;;5114502;28;20479;-70
2023/05/14 09:20:45;;;;;;;6.90;3.10;;;;;;;;;;5110213;28;20543;-72
2023/05/14 09:23:24;;;;;;;6.20;4.47;;;;;;;;;;5072783;28;20687;-71
2023/05/14 09:25:52;;;;;;;5.17;3.17;;;;;;;;;;5073021;28;20472;-71
2023/05/14 09:28:26;;;;;;;5.70;2.90;;;;;;;;;;5085194;28;20483;-71
2023/05/14 09:30:58;;;;;;;4.80;3.23;;;;;;;;;;5092072;28;20455;-71
2023/05/14 09:38:41;;;;;;;6.33;4.27;;;;;;;;;;3339809;26;20571;-67
2023/05/14 09:41:11;;;;;;;5.20;3.10;;;;;;;;;;5070892;28;20480;-70
2023/05/14 09:43:53;;;;;;;11.20;8.27;;;;;;;;;;5060862;28;20462;-71
2023/05/14 09:46:22;;;;;;;4.10;2.70;;;;;;;;;;5056556;28;20487;-70
2023/05/14 09:48:52;;;;;;;5.00;2.60;;;;;;;;;;5057146;28;20481;-71
2023/05/14 09:51:27;;;;;;;3.83;2.43;;;;;;;;;;5053095;28;20446;-70
2023/05/14 09:54:05;;;;;;;5.13;3.20;;;;;;;;;;5073344;28;20470;-70
2023/05/14 09:56:44;;;;;;;6.13;3.03;;;;;;;;;;5059218;28;20442;-72
2023/05/14 09:59:15;;;;;;;4.40;2.83;;;;;;;;;;5059877;28;20530;-71
2023/05/14 10:02:09;;;;;;;;;;;;;;;;;;;;;
2023/05/14 10:04:47;;;;;;;4.17;2.40;;;;;;;;;;5064026;28;20460;-72
2023/05/14 10:07:20;;;;;;;5.00;2.97;;;;;;;;;;5061865;28;20901;-70
2023/05/14 10:09:57;;;;;;;4.80;2.67;;;;;;;;;;5063404;28;20589;-70
2023/05/14 10:12:36;;;;;;;4.03;2.73;;;;;;;;;;5054693;28;20458;-72
2023/05/14 10:15:13;;;;;;;6.30;2.63;;;;;;;;;;5055072;28;20457;-70
2023/05/14 10:18:02;;;;;;;3.80;2.37;;;;;;;;;;5052407;28;20492;-69
2023/05/14 10:20:50;;;;;;;12.10;5.77;;;;;;;;;;5051745;28;20453;-70
2023/05/14 10:23:20;;;;;;;9.23;4.23;;;;;;;;;;5051613;28;20536;-70
2023/05/14 10:25:52;;;;;;;13.73;4.30;;;;;;;;;;5079899;28;20938;-72
2023/05/14 10:28:35;;;;;;;5.20;3.17;;;;;;;;;;5072647;28;20549;-70
2023/05/14 10:31:07;;;;;;;5.53;3.50;;;;;;;;;;5073577;28;20520;-72
2023/05/14 10:34:06;;;;;;;10.23;5.00;;;;;;;;;;5073345;28;20445;-72
2023/05/14 10:36:37;;;;;;;5.37;3.77;;;;;;;;;;5074856;28;20460;-71
2023/05/14 10:42:18;;;;;;;4.90;3.43;;;;;;;;;;5075932;28;20451;-70
2023/05/14 10:44:57;;;;;;;4.80;3.43;;;;;;;;;;5051151;28;20460;-71
2023/05/14 10:47:27;;;;;;;9.57;4.17;;;;;;;;;;5080342;28;20917;-70
2023/05/14 10:49:58;;;;;;;3.70;2.80;;;;;;;;;;5078157;28;20495;-71
2023/05/14 10:52:33;;;;;;;5.07;3.10;;;;;;;;;;5080441;28;20437;-70
2023/05/14 10:55:07;;;;;;;12.97;4.43;;;;;;;;;;5078705;28;20501;-71
2023/05/14 10:57:40;;;;;;;4.13;2.90;;;;;;;;;;5078150;28;20436;-70
2023/05/14 11:00:26;;;;;;;4.90;2.93;;;;;;;;;;5079275;28;20453;-71
2023/05/14 11:02:59;;;;;;;6.73;3.63;;;;;;;;;;5079081;28;20492;-70
2023/05/14 11:05:31;;;;;;;9.13;4.17;;;;;;;;;;5078974;28;20552;-70
2023/05/14 11:08:05;;;;;;;6.63;3.37;;;;;;;;;;5080483;28;20503;-70
2023/05/14 11:10:34;;;;;;;4.97;3.67;;;;;;;;;;5061868;28;20892;-68
2023/05/14 11:13:03;;;;;;;9.13;3.33;;;;;;;;;;5074999;28;21094;-68
2023/05/14 11:15:37;;;;;;;5.00;3.43;;;;;;;;;;5076281;28;20449;-69
2023/05/14 11:18:20;;;;;;;3.40;2.80;;;;;;;;;;5075903;28;20452;-70
2023/05/14 11:20:49;;;;;;;5.27;3.17;;;;;;;;;;5078346;28;20460;-68
2023/05/14 11:23:20;;;;;;;8.87;2.50;;;;;;;;;;5076053;28;20518;-67
2023/05/14 11:25:57;;;;;;;3.53;3.03;;;;;;;;;;5073317;28;20463;-68
2023/05/14 11:28:33;;;;;;;4.57;3.40;;;;;;;;;;5071331;28;20530;-69
2023/05/14 11:31:11;;;;;;;5.13;3.27;;;;;;;;;;5077164;28;20460;-70
2023/05/14 11:33:55;;;;;;;3.80;2.90;;;;;;;;;;5057590;28;20554;-71
2023/05/14 11:36:25;;;;;;;5.53;3.80;;;;;;;;;;5079155;28;21080;-68
2023/05/14 11:38:55;;;;;;;8.70;3.33;;;;;;;;;;5075554;28;20484;-68
2023/05/14 11:41:26;;;;;;;5.10;2.70;;;;;;;;;;5055200;28;20525;-69
2023/05/14 11:43:56;;;;;;;7.00;2.87;;;;;;;;;;5054832;28;20466;-69
2023/05/14 11:46:37;;;;;;;4.70;2.90;;;;;;;;;;5052809;28;20692;-68
2023/05/14 11:49:07;;;;;;;4.67;3.40;;;;;;;;;;5054339;28;20484;-69
2023/05/14 11:51:38;;;;;;;3.63;2.40;;;;;;;;;;5054475;28;20441;-69
2023/05/14 11:54:20;;;;;;;5.30;3.00;;;;;;;;;;5055488;28;20993;-69
2023/05/14 11:56:56;;;;;;;6.40;3.10;;;;;;;;;;5058405;28;20461;-69
2023/05/14 11:59:30;;;;;;;4.10;2.87;;;;;;;;;;5057233;28;20611;-68
2023/05/14 12:02:05;;;;;;;4.73;3.37;;;;;;;;;;5056611;28;20446;-69
2023/05/14 12:04:38;;;;;;;5.03;3.07;;;;;;;;;;5057147;28;20713;-69
2023/05/14 12:07:12;;;;;;;5.10;3.20;;;;;;;;;;5056246;28;20596;-69
2023/05/14 12:09:48;;;;;;;5.77;2.77;;;;;;;;;;5056851;28;20924;-69
2023/05/14 12:12:23;;;;;;;4.50;3.87;;;;;;;;;;5054489;28;20477;-70
2023/05/14 12:14:53;;;;;;;3.33;2.70;;;;;;;;;;5054184;28;20519;-69
2023/05/14 12:17:24;;;;;;;5.90;2.80;;;;;;;;;;5055888;28;20465;-69
2023/05/14 12:19:58;;;;;;;4.50;2.80;;;;;;;;;;5072283;28;20441;-69
2023/05/14 12:22:31;;;;;;;6.23;3.73;;;;;;;;;;5077201;28;20461;-68
2023/05/14 12:25:02;;;;;;;6.40;2.80;;;;;;;;;;5074307;28;20459;-67
2023/05/14 12:30:29;;;;;;;9.80;3.40;;;;;;;;;;5056196;28;20481;-69
2023/05/14 12:33:00;;;;;;;5.13;3.77;;;;;;;;;;5054874;28;20490;-68
2023/05/14 12:35:29;;;;;;;6.73;3.37;;;;;;;;;;5055006;28;20528;-68
2023/05/14 12:37:59;;;;;;;4.67;2.80;;;;;;;;;;5055684;28;20461;-68
2023/05/14 12:40:27;;;;;;;8.93;3.60;;;;;;;;;;5053936;28;20446;-67
2023/05/14 12:42:56;;;;;;;3.30;2.63;;;;;;;;;;5051815;28;20697;-67
2023/05/14 12:45:27;;;;;;;4.60;3.60;;;;;;;;;;5053980;28;20488;-69
2023/05/14 12:48:05;;;;;;;5.57;3.20;;;;;;;;;;5053553;28;20449;-68
2023/05/14 12:50:51;;;;;;;7.87;6.50;;;;;;;;;;5054616;28;20495;-69
2023/05/14 12:53:27;;;;;;;4.30;3.50;;;;;;;;;;5046672;28;20697;-69
2023/05/14 12:56:20;;;;;;;6.93;3.40;;;;;;;;;;5055640;28;20469;-70
2023/05/14 12:58:56;;;;;;;3.83;2.73;;;;;;;;;;5063151;28;20544;-69
2023/05/14 13:01:25;;;;;;;9.30;4.33;;;;;;;;;;5074962;28;20606;-69
2023/05/14 13:03:57;;;;;;;4.87;3.07;;;;;;;;;;5058248;28;20457;-69
2023/05/14 13:06:30;;;;;;;5.70;3.33;;;;;;;;;;5052586;28;20454;-68
2023/05/14 13:09:01;;;;;;;3.17;2.70;;;;;;;;;;5053775;28;21046;-68
2023/05/14 13:11:30;;;;;;;3.97;3.07;;;;;;;;;;5058308;28;20937;-70
2023/05/14 13:14:02;;;;;;;4.50;2.70;;;;;;;;;;5071535;28;20445;-69
2023/05/14 13:16:31;;;;;;;4.23;2.83;;;;;;;;;;5071595;28;20449;-70
2023/05/14 13:18:59;;;;;;;7.83;3.10;;;;;;;;;;5062871;28;20465;-71
2023/05/14 13:21:31;;;;;;;8.50;2.60;;;;;;;;;;5072529;28;20456;-71
2023/05/14 13:24:03;;;;;;;4.80;3.27;;;;;;;;;;5071062;28;20499;-70
2023/05/14 13:26:45;;;;;;;3.60;2.73;;;;;;;;;;5054825;28;20516;-70
2023/05/14 13:29:16;;;;;;;3.87;2.63;;;;;;;;;;5065335;28;20515;-72
2023/05/14 13:31:50;;;;;;;8.13;2.97;;;;;;;;;;5073021;28;20592;-71
2023/05/14 13:34:22;;;;;;;6.60;3.57;;;;;;;;;;5072225;28;20464;-71
2023/05/14 13:37:01;;;;;;;4.70;3.10;;;;;;;;;;5070270;28;20534;-70
2023/05/14 13:39:41;;;;;;;5.80;3.00;;;;;;;;;;5069014;28;20869;-71
2023/05/14 13:42:55;;;;;;;7.10;3.40;;;;;;;;;;5070094;28;20453;-70
2023/05/14 13:45:28;;;;;;;4.80;3.50;;;;;;;;;;5058382;28;20453;-71
2023/05/14 13:47:56;;;;;;;8.00;3.80;;;;;;;;;;5051875;28;20469;-70
2023/05/14 13:50:31;;;;;;;6.03;4.20;;;;;;;;;;5052254;28;20482;-70
2023/05/14 13:53:12;;;;;;;5.00;2.60;;;;;;;;;;5066028;28;20445;-70
2023/05/14 13:55:49;;;;;;;4.40;2.50;;;;;;;;;;5067193;28;20894;-71
2023/05/14 13:58:19;;;;;;;4.60;3.43;;;;;;;;;;5072407;28;20445;-71
2023/05/14 14:00:48;;;;;;;4.67;3.80;;;;;;;;;;5072515;28;20460;-72
2023/05/14 14:03:22;;;;;;;8.03;3.07;;;;;;;;;;5073288;28;20903;-70
2023/05/14 14:05:51;;;;;;;6.20;3.57;;;;;;;;;;5068057;28;21020;-70
2023/05/14 14:08:21;;;;;;;6.03;3.43;;;;;;;;;;5069967;28;20457;-70
2023/05/14 14:10:53;;;;;;;3.90;3.00;;;;;;;;;;5073702;28;20746;-70
2023/05/14 14:13:23;;;;;;;4.50;2.93;;;;;;;;;;5072374;28;20556;-69
2023/05/14 14:15:55;;;;;;;7.50;3.40;;;;;;;;;;5066579;28;20534;-70
2023/05/14 14:18:24;;;;;;;7.03;4.53;;;;;;;;;;5064809;28;20450;-71
2023/05/14 14:20:53;;;;;;;3.20;2.43;;;;;;;;;;5051188;28;20449;-71
2023/05/14 14:23:44;;;;;;;6.57;2.83;;;;;;;;;;5060123;28;20466;-70
2023/05/14 14:26:19;;;;;;;8.93;3.37;;;;;;;;;;5051709;28;20857;-70
2023/05/14 14:28:49;;;;;;;9.20;5.27;;;;;;;;;;5051565;28;20454;-70
2023/05/14 14:31:20;;;;;;;7.00;6.30;;;;;;;;;;5052524;28;20561;-70
2023/05/14 14:33:51;;;;;;;7.60;3.87;;;;;;;;;;5054984;28;20445;-71
2023/05/14 14:36:20;;;;;;;5.10;3.10;;;;;;;;;;5051496;28;20454;-69
2023/05/14 14:38:50;;;;;;;5.77;3.97;;;;;;;;;;5053107;28;20450;-70
2023/05/14 14:41:21;;;;;;;4.13;2.93;;;;;;;;;;5052597;28;20458;-70
2023/05/14 14:43:51;;;;;;;4.60;3.50;;;;;;;;;;5053355;28;20485;-71
2023/05/14 14:46:19;;;;;;;8.53;5.03;;;;;;;;;;5065244;28;20898;-70
2023/05/14 14:48:48;;;;;;;8.00;4.60;;;;;;;;;;5063730;28;20866;-69
2023/05/14 14:51:17;;;;;;;8.77;4.37;;;;;;;;;;5052768;28;20565;-69
2023/05/14 14:53:47;;;;;;;7.70;4.33;;;;;;;;;;5052675;28;20464;-71
2023/05/14 14:56:20;;;;;;;4.67;3.10;;;;;;;;;;5051556;28;20457;-70
2023/05/14 14:59:01;;;;;;;4.53;2.87;;;;;;;;;;5054663;28;20565;-70
2023/05/14 15:01:30;;;;;;;12.93;4.07;;;;;;;;;;5054250;28;20715;-70
2023/05/14 15:03:58;;;;;;;7.43;5.17;;;;;;;;;;5054467;28;20457;-71
2023/05/14 15:06:32;;;;;;;7.00;4.70;;;;;;;;;;5068576;28;20449;-70
2023/05/14 15:09:01;;;;;;;5.87;3.40;;;;;;;;;;5072829;28;21020;-69
2023/05/14 15:11:32;;;;;;;10.40;4.70;;;;;;;;;;5072967;28;20511;-70
2023/05/14 15:14:01;;;;;;;8.20;4.10;;;;;;;;;;5072555;28;20459;-71
2023/05/14 15:16:29;;;;;;;7.87;4.90;;;;;;;;;;5072748;28;20456;-70